Terminal Aerodrome Forecast
Issued by NWS

Home | Current Version | Previous Version | Text Only | Print | Product List | Glossary On
Versions: 1 2 3 4 5 6 7 8 9 10 11 12 13 14 15 16 17 18 19 20 21 22 23 24 25 26 27 28 29
000
FTUS43 KGRB 190212 AAA
TAFMTW
TAF AMD
KMTW 190212Z 1902/1924 22009KT P6SM SKC WS015/27035KT
     FM190400 23006KT 5SM BR OVC007
     FM191200 22004KT 1SM BR OVC002
     FM191600 20005KT 2SM BR BKN010=

USA.gov is the U.S. government's official web portal to all federal, state and local government web resources and services.